Latest Coastal Weather Observations for Robe Airport

IDV60701

Issued at 3:51 pm EST Sunday 29 May 2016 (issued every 10 minutes, with the page automatically refreshed every 10 minutes)

About coastal observations | Map of coastal stations | Coastal observations for VIC | Marine services | Other Formats
Station Details ID: 026105 Name: ROBE AIRFIELD Lat: -37.18 Lon: 139.81 Height: 3.0 m
Data from the previous 72 hours. | See also: Recent months at Robe Airport
Date/Time
EST
Temp

°C
Wind Pressure Rain
since 9am
mm
Weather Cloud Vis
km
Sea
Height
m
Swell
Dir
 
Speed
knots
Gust
knots
hPa Trend Height
m
Period
s
Dir
29/03:30pm 13.2 NE 7 10 1019.5 - 0.0 - - - - - - -
29/03:00pm 12.9 NE 8 11 1019.6 - 0.0 - - - - - - -
29/02:30pm 13.0 NE 8 12 1019.5 - 0.0 - - - - - - -
29/02:00pm 13.1 NE 9 12 1019.6 - 0.0 - - - - - - -
29/01:30pm 13.5 NNE 9 12 1019.9 - 0.0 - - - - - - -
29/01:00pm 13.1 NNE 10 15 1020.0 - 0.0 - - - - - - -
29/12:30pm 12.9 NE 9 13 1020.4 - 0.0 - - - - - - -
29/12:00pm 12.5 ENE 11 16 1020.6 - 0.0 - - - - - - -
29/11:30am 12.3 NE 10 14 1020.8 - 0.0 - - - - - - -
29/11:00am 11.9 NE 11 14 1021.0 - 0.0 - - - - - - -
29/10:30am 11.6 NE 11 15 1021.0 - 0.0 - - - - - - -
29/10:00am 11.2 ENE 11 15 1021.1 - 0.0 - - - - - - -
29/09:30am 10.7 ENE 7 11 1021.0 - 0.0 - - - - - - -
29/09:00am 8.9 NE 6 8 1020.9 - 0.0 - - - - - - -
29/08:30am 8.6 NE 5 7 1020.7 - 0.0 - - - - - - -
29/08:00am 7.8 NE 5 7 1020.4 - 0.0 - - - - - - -
29/07:30am 6.3 NE 4 6 1020.2 - 0.0 - - - - - - -
29/07:00am 7.5 ENE 5 7 1019.9 - 0.0 - - - - - - -
29/06:30am 8.9 E 4 6 1019.9 - 0.0 - - - - - - -
29/06:00am 9.0 E 3 4 1019.5 - 0.0 - - - - - - -
29/05:30am 9.3 E 5 7 1019.2 - 0.0 - - - - - - -
29/05:00am 9.5 E 5 7 1019.3 - 0.0 - - - - - - -
29/04:30am 9.7 ESE 4 5 1019.2 - 0.0 - - - - - - -
29/04:00am 9.4 ESE 3 4 1019.2 - 0.0 - - - - - - -
29/03:30am 9.6 ESE 3 4 1019.2 - 0.0 - - - - - - -
29/03:00am 9.8 ESE 3 4 1019.2 - 0.0 - - - - - - -
29/02:30am 9.9 SE 3 6 1019.3 - 0.0 - - - - - - -
29/02:00am 10.3 SE 1 1 1019.3 - 0.0 - - - - - - -
29/01:30am 10.3 SE 2 3 1019.3 - 0.0 - - - - - - -
29/01:00am 10.2 SE 3 4 1019.4 - 0.0 - - - - - - -
29/12:30am 10.4 SE 3 4 1019.6 - 0.0 - - - - - - -
29/12:00am 10.4 SE 4 7 1019.6 - 0.0 - - - - - - -
 
Date/Time
EST
Temp

°C
Wind Pressure Rain
since 9am
mm
Weather Cloud Vis
km
Sea
Height
m
Swell
Dir
 
Speed
knots
Gust
knots
hPa Trend Height
m
Period
s
Dir
28/11:30pm 10.0 CALM 0 0 1019.6 - 0.0 - - - - - - -
28/11:00pm 10.3 SSE 2 2 1019.6 - 0.0 - - - - - - -
28/10:30pm 10.4 SE 3 3 1019.6 - 0.0 - - - - - - -
28/10:00pm 11.1 SE 4 5 1019.5 - 0.0 - - - - - - -
28/09:30pm 11.1 SE 4 6 1019.2 - 0.0 - - - - - - -
28/09:00pm 11.2 SE 5 7 1019.1 - 0.0 - - - - - - -
28/08:30pm 11.4 SSE 5 9 1019.1 - 0.0 - - - - - - -
28/08:00pm 11.3 SE 3 5 1019.0 - 0.0 - - - - - - -
28/07:30pm 11.7 S 5 8 1018.7 - 0.0 - - - - - - -
28/07:00pm 10.8 SSW 1 2 1018.5 - 0.0 - - - - - - -
28/06:30pm 11.0 SSW 3 4 1018.4 - 0.0 - - - - - - -
28/06:00pm 11.3 SSW 3 4 1018.1 - 0.0 - - - - - - -
28/05:30pm 11.7 SSW 6 8 1017.9 - 0.0 - - - - - - -
28/05:00pm 12.1 SSE 6 9 1017.7 - 0.0 - - - - - - -
28/04:30pm 12.5 SSW 4 5 1017.5 - 0.0 - - - - - - -
28/04:00pm 12.5 S 9 13 1017.4 - 0.0 - - - - - - -
28/03:30pm 13.8 S 10 15 1017.1 - 0.0 - - - - - - -
28/03:00pm 13.4 SSW 10 15 1016.9 - 0.0 - - - - - - -
28/02:30pm 13.6 S 10 12 1016.4 - 0.0 - - - - - - -
28/02:00pm 14.8 S 10 16 1016.4 - 0.0 - - - - - - -
28/01:30pm 13.9 S 9 13 1016.5 - 0.0 - - - - - - -
28/01:00pm 13.9 S 11 14 1016.4 - 0.0 - - - - - - -
28/12:30pm 14.2 S 12 17 1016.5 - 0.0 - - - - - - -
28/12:00pm 14.5 S 11 16 1016.6 - 0.0 - - - - - - -
28/11:30am 14.3 SE 7 11 1016.6 - 0.0 - - - - - - -
28/11:00am 12.8 SE 6 10 1016.6 - 0.0 - - - - - - -
28/10:30am 12.9 SSE 6 9 1016.3 - 0.0 - - - - - - -
28/10:00am 11.9 SE 4 6 1016.0 - 0.0 - - - - - - -
28/09:30am 9.9 SE 4 9 1015.6 - 7.0 - - - - - - -
28/09:00am 9.3 SE 2 3 1015.3 - 7.0 - - - - - - -
28/08:30am 8.4 CALM 0 0 1015.0 - 7.0 - - - - - - -
28/08:00am 7.2 CALM 0 0 1014.8 - 7.0 - - - - - - -
28/07:30am 7.7 SE 2 3 1014.3 - 7.0 - - - - - - -
28/07:00am 8.2 SSE 4 6 1013.7 - 7.0 - - - - - - -
28/06:30am 8.1 S 3 6 1013.2 - 7.0 - - - - - - -
28/06:00am 7.4 S 4 4 1012.7 - 7.0 - - - - - - -
28/05:30am 6.6 S 3 3 1012.2 - 7.0 - - - - - - -
28/05:00am 7.1 SSE 4 6 1011.9 - 7.0 - - - - - - -
28/04:30am 7.9 SSE 4 7 1011.5 - 7.0 - - - - - - -
28/04:00am 8.7 SSE 6 11 1011.3 - 7.0 - - - - - - -
28/03:30am 8.8 SSE 5 7 1011.1 - 7.0 - - - - - - -
28/03:00am 9.3 SSE 7 10 1010.7 - 7.0 - - - - - - -
28/02:30am 9.3 SSE 7 9 1010.4 - 7.0 - - - - - - -
28/02:00am 8.9 SSE 8 11 1009.9 - 7.0 - - - - - - -
28/01:30am 9.1 SSE 8 11 1009.6 - 7.0 - - - - - - -
28/01:00am 8.8 SE 5 8 1009.1 - 7.0 - - - - - - -
28/12:30am 9.1 SE 7 12 1008.5 - 7.0 - - - - - - -
28/12:00am 9.3 SE 7 10 1008.2 - 7.0 - - - - - - -
 
Date/Time
EST
Temp

°C
Wind Pressure Rain
since 9am
mm
Weather Cloud Vis
km
Sea
Height
m
Swell
Dir
 
Speed
knots
Gust
knots
hPa Trend Height
m
Period
s
Dir
27/11:30pm 8.0 SE 7 11 1007.7 - 7.0 - - - - - - -
27/11:00pm 6.4 WSW 1 2 1006.9 - 7.0 - - - - - - -
27/10:30pm 6.6 WSW 3 4 1006.4 - 7.0 - - - - - - -
27/10:00pm 6.8 WSW 3 3 1006.3 - 7.0 - - - - - - -
27/09:30pm 7.3 WSW 3 3 1005.9 - 7.0 - - - - - - -
27/09:00pm 8.4 CALM 0 0 1005.6 - 7.0 - - - - - - -
27/08:30pm 10.2 WSW 2 3 1005.3 - 7.0 - - - - - - -
27/08:00pm 12.4 WSW 4 6 1005.1 - 7.0 - - - - - - -
27/07:30pm 11.9 W 4 6 1004.9 - 7.0 - - - - - - -
27/07:00pm 12.0 WSW 3 4 1004.6 - 7.0 - - - - - - -
27/06:30pm 12.2 WSW 3 5 1004.5 - 7.0 - - - - - - -
27/06:00pm 12.7 WSW 4 7 1004.1 - 7.0 - - - - - - -
27/05:30pm 12.9 WSW 4 6 1004.0 - 7.0 - - - - - - -
27/05:00pm 13.3 W 5 8 1003.7 - 7.0 - - - - - - -
27/04:30pm 13.4 WSW 6 9 1003.4 - 7.0 - - - - - - -
27/04:00pm 13.6 W 7 11 1003.3 - 7.0 - - - - - - -
27/03:30pm 13.8 WSW 7 14 1003.0 - 7.0 - - - - - - -
27/03:00pm 14.3 WSW 8 13 1002.8 - 7.0 - - - - - - -
27/02:30pm 15.7 W 10 18 1002.8 - 7.0 - - - - - - -
27/02:00pm 16.0 W 8 15 1002.8 - 7.0 - - - - - - -
27/01:30pm 15.0 W 9 14 1003.1 - 7.0 - - - - - - -
27/01:00pm 13.8 NNW 4 7 1003.4 - 7.0 - - - - - - -
27/12:30pm 13.0 NE 6 8 1003.5 - 7.0 Recent precip. - - - - - -
27/12:00pm 11.0 NE 7 11 1004.0 - 7.0 - - - - - - -
27/11:30am 10.7 NNE 7 9 1004.6 - 4.8 - - - - - - -
27/11:00am 10.6 NNE 9 12 1004.7 - 4.0 - - - - - - -
27/10:30am 10.4 NNE 10 13 1004.9 - 2.6 - - - - - - -
27/10:00am 10.6 NE 10 15 1005.0 - 1.0 - - - - - - -
27/09:30am 10.7 ENE 10 13 1005.4 - 5.8 Recent precip. - - - - - -
27/09:00am 9.9 NE 8 10 1005.9 - 5.8 - - - - - - -
27/08:30am 9.2 NNE 6 8 1006.7 - 2.8 - - - - - - -
27/08:00am 8.7 NE 6 9 1006.4 - 0.4 - - - - - - -
27/07:30am 8.4 NE 7 9 1006.3 - 0.4 - - - - - - -
27/07:00am 8.0 NE 7 8 1006.5 - 0.4 - - - - - - -
27/06:30am 8.0 NNE 6 8 1006.9 - 0.4 - - - - - - -
27/06:00am 7.1 N 3 4 1007.2 - 0.4 - - - - - - -
27/05:30am 6.7 SW 3 4 1007.5 - 0.4 - - - - - - -
27/05:00am 6.2 SW 2 3 1007.6 - 0.4 - - - - - - -
27/04:30am 5.9 SW 3 4 1007.9 - 0.4 - - - - - - -
27/04:00am 4.9 SW 3 3 1007.9 - 0.4 - - - - - - -
27/03:30am 5.1 SW 1 3 1008.2 - 0.4 - - - - - - -
27/03:00am 6.1 CALM 0 1 1008.5 - 0.4 - - - - - - -
27/02:30am 6.0 SW 2 3 1008.7 - 0.4 - - - - - - -
27/02:00am 5.4 CALM 0 1 1008.8 - 0.4 - - - - - - -
27/01:30am 5.9 CALM 0 0 1009.0 - 0.4 - - - - - - -
27/01:00am 5.5 CALM 0 0 1009.2 - 0.4 - - - - - - -
27/12:30am 5.5 CALM 0 0 1009.3 - 0.4 - - - - - - -
27/12:00am 6.6 CALM 0 0 1009.6 - 0.4 - - - - - - -
 
Date/Time
EST
Temp

°C
Wind Pressure Rain
since 9am
mm
Weather Cloud Vis
km
Sea
Height
m
Swell
Dir
 
Speed
knots
Gust
knots
hPa Trend Height
m
Period
s
Dir
26/11:30pm 5.8 CALM 0 0 1009.7 - 0.4 - - - - - - -
26/11:00pm 7.5 SW 2 3 1009.8 - 0.4 - - - - - - -
26/10:30pm 10.4 SW 2 3 1010.0 - 0.4 - - - - - - -
26/10:00pm 11.5 SW 3 4 1010.2 - 0.4 - - - - - - -
26/09:30pm 11.7 SW 4 6 1010.3 - 0.4 - - - - - - -
26/09:00pm 12.3 SW 5 8 1010.1 - 0.4 - - - - - - -
26/08:30pm 12.2 SW 4 6 1010.0 - 0.4 - - - - - - -
26/08:00pm 12.4 SW 5 8 1009.7 - 0.4 - - - - - - -
26/07:30pm 12.2 SW 4 7 1009.6 - 0.4 - - - - - - -
26/07:00pm 12.5 SW 5 9 1009.3 - 0.4 - - - - - - -
26/06:30pm 12.7 SW 5 10 1009.0 - 0.4 - - - - - - -
26/06:00pm 12.2 SW 4 6 1008.8 - 0.4 - - - - - - -
26/05:30pm 12.4 WSW 5 8 1008.5 - 0.4 - - - - - - -
26/05:00pm 13.1 WSW 7 11 1008.2 - 0.4 - - - - - - -
26/04:30pm 13.1 SW 6 10 1008.0 - 0.4 - - - - - - -

Other Formats:

Comma delimited format used in spreadsheet applications
http://www.bom.gov.au/fwo/IDV60701/IDV60701.95816.axf

JavaScript Object Notation format (JSON) in row-major order
http://www.bom.gov.au/fwo/IDV60701/IDV60701.95816.json